Time;durP1;ratioP1;P1;durP2;ratioP2;P2;SDS_P1;SDS_P2;PMS_P1;PMS_P2;Temp;Humidity;BMP_temperature;BMP_pressure;BME280_temperature;BME280_humidity;BME280_pressure;Samples;Min_cycle;Max_cycle;Signal;HPM_P1;HPM_P2
2022/11/25 00:02:07;;;;;;;24.52;22.17;;;1.60;99.90;;;;;;4218356;28;20239;-84
2022/11/25 00:04:28;;;;;;;24.10;21.63;;;1.50;99.90;;;;;;4217610;28;20366;-84
2022/11/25 00:06:47;;;;;;;27.00;23.58;;;1.50;99.90;;;;;;4217887;28;20054;-84
2022/11/25 00:09:10;;;;;;;23.13;20.88;;;1.50;99.90;;;;;;4219293;28;20047;-84
2022/11/25 00:11:32;;;;;;;25.58;23.13;;;1.50;99.90;;;;;;4231927;28;20046;-84
2022/11/25 00:13:54;;;;;;;26.70;23.67;;;1.50;99.90;;;;;;4216924;28;20315;-84
2022/11/25 00:16:16;;;;;;;24.40;21.98;;;1.50;99.90;;;;;;4220686;28;20366;-84
2022/11/25 00:18:37;;;;;;;27.42;23.17;;;1.50;99.90;;;;;;4220942;28;20117;-84
2022/11/25 00:20:58;;;;;;;24.05;21.73;;;1.50;99.90;;;;;;4218458;28;20365;-84
2022/11/25 00:23:18;;;;;;;24.63;22.20;;;1.50;99.90;;;;;;4218400;28;20131;-84
2022/11/25 00:25:38;;;;;;;49.75;25.10;;;1.50;99.90;;;;;;4215951;28;20048;-84
2022/11/25 00:27:58;;;;;;;86.03;23.80;;;1.40;99.90;;;;;;4217605;28;20077;-84
2022/11/25 00:30:17;;;;;;;56.35;20.35;;;1.30;99.90;;;;;;4230791;28;20073;-84
2022/11/25 00:32:37;;;;;;;34.40;20.85;;;1.30;99.90;;;;;;4216486;28;20108;-84
2022/11/25 00:34:57;;;;;;;34.00;19.02;;;1.30;99.90;;;;;;4218095;28;20055;-84
2022/11/25 00:37:16;;;;;;;22.63;14.73;;;1.20;99.90;;;;;;4214544;28;20048;-84
2022/11/25 00:39:36;;;;;;;15.60;14.60;;;1.30;99.90;;;;;;4215602;28;20071;-84
2022/11/25 00:44:39;;;;;;;12.95;12.15;;;1.50;99.90;;;;;;4226724;28;20038;-84
2022/11/25 00:47:11;;;;;;;13.45;12.45;;;1.50;99.90;;;;;;4217220;28;20400;-84
2022/11/25 00:49:31;;;;;;;14.15;12.93;;;1.60;99.90;;;;;;4229961;28;20076;-84
2022/11/25 00:51:51;;;;;;;14.48;13.52;;;1.60;99.90;;;;;;4218083;28;20384;-84
2022/11/25 00:54:11;;;;;;;12.90;12.20;;;1.70;99.90;;;;;;4224127;28;20055;-84
2022/11/25 00:56:31;;;;;;;14.60;13.45;;;1.70;99.90;;;;;;4218946;28;20050;-84
2022/11/25 00:58:52;;;;;;;16.65;15.45;;;1.60;99.90;;;;;;4219546;28;20239;-84
2022/11/25 01:01:13;;;;;;;15.75;14.38;;;1.60;99.90;;;;;;4231848;28;20089;-84
2022/11/25 01:03:35;;;;;;;15.60;14.68;;;1.60;99.90;;;;;;4215361;28;20061;-84
2022/11/25 01:06:00;;;;;;;15.32;14.23;;;1.70;99.90;;;;;;4216821;28;20042;-84
2022/11/25 01:08:20;;;;;;;14.73;13.82;;;1.60;99.90;;;;;;4217521;28;20050;-84
2022/11/25 01:10:40;;;;;;;19.33;17.40;;;1.60;99.90;;;;;;4224626;28;20170;-84
2022/11/25 01:12:59;;;;;;;17.95;16.17;;;1.70;99.90;;;;;;4217116;28;20079;-84
2022/11/25 01:15:19;;;;;;;16.63;15.35;;;1.70;99.90;;;;;;4230972;28;20092;-84
2022/11/25 01:17:38;;;;;;;16.95;15.35;;;1.70;99.90;;;;;;4229392;28;20054;-84
2022/11/25 01:19:59;;;;;;;15.45;14.15;;;1.80;99.90;;;;;;4214745;28;20047;-84
2022/11/25 01:22:19;;;;;;;16.30;15.18;;;2.00;99.90;;;;;;4226671;28;20122;-84
2022/11/25 01:24:39;;;;;;;17.77;15.70;;;2.00;99.90;;;;;;4215826;28;20072;-84
2022/11/25 01:26:59;;;;;;;16.42;15.07;;;1.90;99.90;;;;;;4234163;28;20047;-84
2022/11/25 01:29:18;;;;;;;16.95;15.65;;;1.80;99.90;;;;;;4218817;28;20086;-84
2022/11/25 01:31:38;;;;;;;19.00;16.70;;;1.80;99.90;;;;;;4232015;28;20054;-84
2022/11/25 01:34:01;;;;;;;17.70;16.45;;;1.80;99.90;;;;;;4217346;28;20108;-83
2022/11/25 01:36:21;;;;;;;18.88;17.17;;;1.70;99.90;;;;;;4229331;28;20242;-84
2022/11/25 01:38:41;;;;;;;16.83;15.60;;;1.70;99.90;;;;;;4214358;28;20405;-84
2022/11/25 01:41:03;;;;;;;14.13;13.27;;;1.70;99.90;;;;;;4215511;28;20293;-84
2022/11/25 01:43:24;;;;;;;16.23;15.10;;;1.70;99.90;;;;;;4217426;28;20043;-84
2022/11/25 01:45:44;;;;;;;14.20;13.07;;;1.70;99.90;;;;;;4233767;28;20055;-84
2022/11/25 01:48:31;;;;;;;14.75;13.85;;;1.70;99.90;;;;;;4216277;28;20043;-84
2022/11/25 01:50:53;;;;;;;15.38;14.30;;;1.70;99.90;;;;;;4214790;28;20043;-84
2022/11/25 01:53:15;;;;;;;14.98;14.10;;;1.80;99.90;;;;;;4217300;28;20043;-84
2022/11/25 01:55:37;;;;;;;15.65;14.63;;;1.80;99.90;;;;;;4217917;28;20409;-84
2022/11/25 01:58:09;;;;;;;17.33;15.77;;;1.80;99.90;;;;;;4230624;28;20415;-84
2022/11/25 02:00:29;;;;;;;16.47;15.23;;;1.70;99.90;;;;;;4224778;28;20055;-84
2022/11/25 02:02:52;;;;;;;18.02;16.45;;;1.70;99.90;;;;;;4229163;28;20051;-84
2022/11/25 02:05:17;;;;;;;19.52;17.88;;;1.70;99.90;;;;;;4215232;28;20050;-84
2022/11/25 02:07:40;;;;;;;18.13;16.52;;;1.60;99.90;;;;;;4216389;28;20067;-84
2022/11/25 02:10:04;;;;;;;15.80;14.50;;;1.60;99.90;;;;;;4211679;28;20091;-84
2022/11/25 02:12:27;;;;;;;13.75;12.95;;;1.60;99.90;;;;;;4216442;28;20366;-84
2022/11/25 02:14:49;;;;;;;14.30;13.70;;;1.60;99.90;;;;;;4230327;28;20172;-84
2022/11/25 02:17:09;;;;;;;17.27;14.13;;;1.70;99.90;;;;;;4226209;28;20035;-84
2022/11/25 02:20:06;;;;;;;23.88;15.98;;;1.70;99.90;;;;;;4216831;28;20051;-84
2022/11/25 02:23:03;;;;;;;17.63;15.82;;;1.60;99.90;;;;;;4229006;28;20237;-84
2022/11/25 02:25:25;;;;;;;18.58;17.10;;;1.70;99.90;;;;;;4213654;28;20071;-84
2022/11/25 02:27:49;;;;;;;16.33;14.95;;;1.60;99.90;;;;;;4229232;28;20039;-84
2022/11/25 02:30:09;;;;;;;18.35;16.90;;;1.70;99.90;;;;;;4220007;28;20268;-84
2022/11/25 02:32:29;;;;;;;15.75;14.55;;;1.70;99.90;;;;;;4229554;28;20238;-84
2022/11/25 02:34:49;;;;;;;15.75;14.57;;;1.70;99.90;;;;;;4229288;28;20059;-84
2022/11/25 02:37:09;;;;;;;16.35;14.95;;;1.80;99.90;;;;;;4228443;28;20082;-84
2022/11/25 02:39:29;;;;;;;34.40;27.77;;;1.90;99.90;;;;;;4217026;28;20242;-84
2022/11/25 02:41:54;;;;;;;22.27;20.15;;;1.90;99.90;;;;;;4229223;28;20050;-84
2022/11/25 02:44:14;;;;;;;17.80;16.38;;;2.00;99.90;;;;;;4213249;28;20282;-84
2022/11/25 02:46:35;;;;;;;13.90;13.02;;;2.00;99.90;;;;;;4215434;28;20107;-84
2022/11/25 02:48:57;;;;;;;15.23;14.13;;;2.00;99.90;;;;;;4216336;28;20075;-84
2022/11/25 02:51:33;;;;;;;13.95;13.05;;;2.00;99.90;;;;;;4219078;28;20089;-84
2022/11/25 02:53:53;;;;;;;16.30;14.73;;;2.00;99.90;;;;;;4228791;28;20296;-84
2022/11/25 02:56:17;;;;;;;17.55;15.90;;;2.00;99.90;;;;;;4226006;28;20227;-84
2022/11/25 02:58:38;;;;;;;17.83;16.23;;;1.90;99.90;;;;;;4214388;28;20067;-84
2022/11/25 03:00:58;;;;;;;16.70;15.45;;;1.80;99.90;;;;;;4217178;28;20047;-84
2022/11/25 03:03:18;;;;;;;17.42;16.20;;;1.80;99.90;;;;;;4229507;28;20385;-84
2022/11/25 03:05:38;;;;;;;17.35;15.85;;;1.90;99.90;;;;;;4220623;28;20070;-84
2022/11/25 03:07:58;;;;;;;18.52;16.88;;;1.90;99.90;;;;;;4222534;28;20067;-84
2022/11/25 03:10:18;;;;;;;17.45;16.13;;;1.80;99.90;;;;;;4215397;28;20063;-84
2022/11/25 03:12:38;;;;;;;14.43;13.48;;;1.70;99.90;;;;;;4219108;28;20404;-84
2022/11/25 03:14:58;;;;;;;17.38;15.85;;;1.70;99.90;;;;;;4217494;28;20062;-84
2022/11/25 03:17:18;;;;;;;15.88;14.68;;;1.60;99.90;;;;;;4214283;28;20093;-84
2022/11/25 03:19:37;;;;;;;13.35;12.68;;;1.60;99.90;;;;;;4232967;28;20239;-84
2022/11/25 03:21:57;;;;;;;15.98;14.60;;;1.70;99.90;;;;;;4217053;28;20044;-84
2022/11/25 03:24:17;;;;;;;15.98;14.63;;;1.70;99.90;;;;;;4215631;28;20052;-84
2022/11/25 03:26:37;;;;;;;15.00;13.80;;;1.70;99.90;;;;;;4221198;28;20120;-84
2022/11/25 03:28:57;;;;;;;12.50;11.68;;;1.70;99.90;;;;;;4219182;28;20128;-84
2022/11/25 03:31:17;;;;;;;13.30;12.35;;;1.70;99.90;;;;;;4232257;28;20082;-84
2022/11/25 03:33:37;;;;;;;13.27;12.15;;;1.70;99.90;;;;;;4214852;28;20035;-84
2022/11/25 03:35:57;;;;;;;11.55;11.00;;;1.70;99.90;;;;;;4217569;28;20062;-84
2022/11/25 03:38:16;;;;;;;12.75;12.00;;;1.70;99.90;;;;;;4225008;28;20365;-84
2022/11/25 03:40:36;;;;;;;14.75;13.60;;;1.80;99.90;;;;;;4220020;28;20286;-84
2022/11/25 03:42:56;;;;;;;14.63;13.52;;;1.80;99.90;;;;;;4216468;28;20043;-84
2022/11/25 03:45:16;;;;;;;11.10;10.13;;;1.80;99.90;;;;;;4233162;28;20088;-85
2022/11/25 03:47:36;;;;;;;11.60;11.00;;;1.90;99.90;;;;;;4220191;28;20043;-85
2022/11/25 03:49:55;;;;;;;10.38;9.90;;;1.90;99.90;;;;;;4231605;28;20055;-84
2022/11/25 03:52:15;;;;;;;9.35;8.70;;;2.00;99.90;;;;;;4214302;28;20258;-85
2022/11/25 03:54:35;;;;;;;8.43;8.15;;;2.10;99.90;;;;;;4224866;28;20047;-85
2022/11/25 03:56:55;;;;;;;8.30;8.13;;;2.10;99.90;;;;;;4230748;28;20042;-85
2022/11/25 03:59:15;;;;;;;9.43;8.90;;;2.20;99.90;;;;;;4216875;28;20341;-84
2022/11/25 04:01:34;;;;;;;12.10;11.45;;;2.20;99.90;;;;;;4231129;28;20046;-84
2022/11/25 04:03:59;;;;;;;11.02;10.40;;;2.20;99.90;;;;;;4227321;28;20730;-84
2022/11/25 04:06:20;;;;;;;12.45;11.55;;;2.20;99.90;;;;;;4229730;28;20047;-84
2022/11/25 04:08:40;;;;;;;11.50;10.88;;;2.20;99.90;;;;;;4232760;28;20034;-84
2022/11/25 04:11:00;;;;;;;12.43;11.75;;;2.20;99.90;;;;;;4230054;28;20093;-85
2022/11/25 04:13:20;;;;;;;11.80;11.20;;;2.10;99.90;;;;;;4232073;28;20093;-85
2022/11/25 04:15:50;;;;;;;11.55;11.02;;;2.10;99.90;;;;;;4232289;28;20384;-84
2022/11/25 04:18:10;;;;;;;12.85;11.98;;;1.90;99.90;;;;;;4215593;28;20039;-85
2022/11/25 04:20:29;;;;;;;14.13;13.13;;;1.90;99.90;;;;;;4223981;28;20082;-85
2022/11/25 04:22:49;;;;;;;13.32;12.15;;;1.90;99.90;;;;;;4218096;28;20092;-84
2022/11/25 04:25:10;;;;;;;14.02;13.07;;;1.80;99.90;;;;;;4217688;28;20051;-85
2022/11/25 04:27:29;;;;;;;12.65;11.88;;;1.90;99.90;;;;;;4215184;28;20118;-84
2022/11/25 04:29:49;;;;;;;12.95;12.00;;;1.80;99.90;;;;;;4231252;28;20055;-84
2022/11/25 04:32:09;;;;;;;11.15;10.55;;;1.80;99.90;;;;;;4223316;28;20368;-84
2022/11/25 04:34:28;;;;;;;8.52;8.23;;;1.80;99.90;;;;;;4217308;28;20297;-84
2022/11/25 04:36:48;;;;;;;9.25;8.75;;;1.80;99.90;;;;;;4215036;28;20385;-85
2022/11/25 04:39:08;;;;;;;9.35;8.98;;;1.90;99.90;;;;;;4230941;28;20046;-85
2022/11/25 04:41:27;;;;;;;10.07;9.48;;;2.00;99.90;;;;;;4228008;28;20093;-84
2022/11/25 04:43:47;;;;;;;12.38;11.57;;;2.00;99.90;;;;;;4214890;28;20042;-84
2022/11/25 04:46:08;;;;;;;11.38;10.60;;;2.00;99.90;;;;;;4216776;28;20290;-84
2022/11/25 04:48:35;;;;;;;13.05;12.35;;;2.00;99.90;;;;;;4217990;28;20050;-84
2022/11/25 04:50:55;;;;;;;13.82;12.82;;;2.10;99.90;;;;;;4219116;28;20055;-84
2022/11/25 04:53:15;;;;;;;11.48;11.00;;;2.00;99.90;;;;;;4217776;28;20039;-84
2022/11/25 04:55:34;;;;;;;11.88;11.23;;;2.10;99.90;;;;;;4218050;28;20100;-84
2022/11/25 04:57:54;;;;;;;12.68;11.43;;;2.10;99.90;;;;;;4211629;28;20748;-84
2022/11/25 05:00:15;;;;;;;11.13;10.55;;;2.10;99.90;;;;;;4219066;28;20078;-84
2022/11/25 05:02:35;;;;;;;10.77;10.25;;;2.10;99.90;;;;;;4217470;28;20097;-84
2022/11/25 05:04:56;;;;;;;8.73;8.40;;;2.20;99.90;;;;;;4229780;28;20050;-84
2022/11/25 05:07:18;;;;;;;10.98;10.15;;;2.30;99.90;;;;;;4230150;28;20070;-84
2022/11/25 05:09:38;;;;;;;13.77;11.13;;;2.30;99.90;;;;;;4218113;28;20449;-84
2022/11/25 05:11:57;;;;;;;10.38;9.85;;;2.30;99.90;;;;;;4219168;28;20412;-84
2022/11/25 05:14:17;;;;;;;12.48;11.80;;;2.30;99.90;;;;;;4218497;28;20075;-84
2022/11/25 05:16:37;;;;;;;11.48;10.85;;;2.20;99.90;;;;;;4218168;28;20092;-84
2022/11/25 05:18:56;;;;;;;11.68;10.77;;;2.20;99.90;;;;;;4217549;28;20075;-84
2022/11/25 05:21:18;;;;;;;10.52;10.13;;;2.20;99.90;;;;;;4219000;28;20048;-84
2022/11/25 05:23:37;;;;;;;9.98;9.52;;;2.20;99.90;;;;;;4229222;28;20539;-84
2022/11/25 05:26:02;;;;;;;9.65;9.35;;;2.20;99.90;;;;;;4232411;28;20047;-85
2022/11/25 05:28:22;;;;;;;9.63;8.93;;;2.20;99.90;;;;;;4229664;28;20035;-84
2022/11/25 05:30:44;;;;;;;13.32;12.20;;;2.20;99.90;;;;;;4227964;28;20051;-84
2022/11/25 05:33:03;;;;;;;12.02;11.25;;;2.20;99.90;;;;;;4231447;28;20046;-84
2022/11/25 05:35:23;;;;;;;13.55;11.48;;;2.10;99.90;;;;;;4230536;28;20235;-84
2022/11/25 05:37:43;;;;;;;11.13;10.52;;;2.20;99.90;;;;;;4217979;28;20044;-84
2022/11/25 05:40:03;;;;;;;10.77;10.18;;;2.20;99.90;;;;;;4216113;28;20055;-84
2022/11/25 05:42:23;;;;;;;11.15;10.65;;;2.20;99.90;;;;;;4214432;28;20035;-85
2022/11/25 05:44:43;;;;;;;12.27;11.50;;;2.30;99.90;;;;;;4215734;28;20284;-85
2022/11/25 05:47:02;;;;;;;13.30;12.48;;;2.20;99.90;;;;;;4231151;28;20085;-84
2022/11/25 05:49:22;;;;;;;17.30;14.02;;;2.20;99.90;;;;;;4217228;28;20066;-84
2022/11/25 05:51:42;;;;;;;15.00;13.55;;;2.20;99.90;;;;;;4228757;28;20101;-84
2022/11/25 05:54:01;;;;;;;12.52;11.80;;;2.30;99.90;;;;;;4217479;28;20389;-84
2022/11/25 05:56:22;;;;;;;12.32;11.63;;;2.30;99.90;;;;;;4219030;28;20050;-85
2022/11/25 05:58:43;;;;;;;13.30;11.10;;;2.30;99.90;;;;;;4226982;28;20203;-84
2022/11/25 06:01:11;;;;;;;11.35;10.65;;;2.30;99.90;;;;;;4229916;28;20051;-84
2022/11/25 06:03:30;;;;;;;10.48;9.98;;;2.30;99.90;;;;;;4213780;28;20043;-84
2022/11/25 06:05:50;;;;;;;10.88;10.32;;;2.30;99.90;;;;;;4217614;28;20086;-84
2022/11/25 06:08:10;;;;;;;13.50;12.73;;;2.30;99.90;;;;;;4216940;28;20062;-84
2022/11/25 06:10:30;;;;;;;12.00;11.25;;;2.40;99.90;;;;;;4212814;28;20082;-85
2022/11/25 06:12:52;;;;;;;13.70;12.73;;;2.40;99.90;;;;;;4229539;28;20042;-85
2022/11/25 06:15:12;;;;;;;12.23;11.35;;;2.30;99.90;;;;;;4231675;28;20049;-85
2022/11/25 06:17:32;;;;;;;12.73;12.05;;;2.30;99.90;;;;;;4213322;28;20036;-84
2022/11/25 06:19:51;;;;;;;14.35;13.18;;;2.30;99.90;;;;;;4216890;28;20059;-84
2022/11/25 06:22:11;;;;;;;13.27;12.25;;;2.30;99.90;;;;;;4214122;28;20113;-84
2022/11/25 06:24:31;;;;;;;10.52;10.23;;;2.40;99.90;;;;;;4218282;28;20085;-84
2022/11/25 06:26:50;;;;;;;84.40;54.40;;;2.40;99.90;;;;;;4228437;28;20106;-84
2022/11/25 06:29:10;;;;;;;51.83;36.90;;;2.50;99.90;;;;;;4213356;28;20231;-84
2022/11/25 06:31:30;;;;;;;71.53;47.50;;;2.50;99.90;;;;;;4229549;28;20097;-85
2022/11/25 06:33:52;;;;;;;19.73;17.58;;;2.50;99.90;;;;;;4216511;28;20111;-84
2022/11/25 06:36:16;;;;;;;15.30;14.20;;;2.50;99.90;;;;;;4231251;28;20047;-84
2022/11/25 06:38:36;;;;;;;16.45;15.25;;;2.40;99.90;;;;;;4228369;28;20035;-84
2022/11/25 06:41:03;;;;;;;14.50;13.50;;;2.40;99.90;;;;;;4215079;28;20056;-85
2022/11/25 06:43:23;;;;;;;17.58;15.95;;;2.40;99.90;;;;;;4224409;28;20054;-85
2022/11/25 06:45:43;;;;;;;17.88;16.23;;;2.40;99.90;;;;;;4230227;28;20050;-85
2022/11/25 06:48:03;;;;;;;27.52;23.38;;;2.50;99.90;;;;;;4230495;28;20039;-85
2022/11/25 06:50:22;;;;;;;21.52;19.25;;;2.40;99.90;;;;;;4230420;28;20058;-85
2022/11/25 06:52:43;;;;;;;20.13;17.92;;;2.40;99.90;;;;;;4219933;28;20067;-85
2022/11/25 06:55:03;;;;;;;16.02;14.88;;;2.50;99.90;;;;;;4215841;28;20047;-85
2022/11/25 06:57:23;;;;;;;15.30;14.05;;;2.60;99.90;;;;;;4228062;28;20035;-85
2022/11/25 06:59:43;;;;;;;11.73;11.10;;;2.60;99.90;;;;;;4216634;28;20377;-84
2022/11/25 07:02:04;;;;;;;11.93;10.82;;;2.70;99.90;;;;;;4213956;28;20054;-85
2022/11/25 07:04:24;;;;;;;12.25;11.30;;;2.70;99.90;;;;;;4217874;28;20044;-85
2022/11/25 07:06:44;;;;;;;12.60;11.90;;;2.80;99.90;;;;;;4230959;28;20380;-85
2022/11/25 07:09:05;;;;;;;13.05;12.02;;;2.80;99.90;;;;;;4216724;28;20454;-84
2022/11/25 07:11:33;;;;;;;14.68;13.57;;;2.80;99.90;;;;;;4224267;28;20051;-84
2022/11/25 07:13:56;;;;;;;13.98;12.73;;;2.80;99.90;;;;;;4234785;28;20434;-85
2022/11/25 07:16:15;;;;;;;15.52;14.32;;;2.90;99.90;;;;;;4230355;28;20102;-85
2022/11/25 07:18:37;;;;;;;17.25;15.65;;;2.90;99.90;;;;;;4219933;28;20101;-84
2022/11/25 07:21:02;;;;;;;20.38;18.42;;;2.90;99.90;;;;;;4221047;28;20394;-84
2022/11/25 07:23:22;;;;;;;24.30;19.45;;;3.00;99.90;;;;;;4232225;28;20039;-84
2022/11/25 07:25:41;;;;;;;21.63;19.13;;;3.00;99.90;;;;;;4233493;28;20528;-85
2022/11/25 07:28:01;;;;;;;21.52;19.40;;;3.00;99.90;;;;;;4224376;28;20129;-85
2022/11/25 07:30:21;;;;;;;27.20;24.25;;;3.10;99.90;;;;;;4231357;28;20058;-85
2022/11/25 07:33:01;;;;;;;25.13;22.63;;;3.10;99.90;;;;;;4222957;28;20238;-85
2022/11/25 07:35:21;;;;;;;19.45;17.83;;;3.20;99.90;;;;;;4217443;28;20070;-85
2022/11/25 07:37:41;;;;;;;21.13;19.23;;;3.20;99.90;;;;;;4219814;28;20055;-85
2022/11/25 07:40:01;;;;;;;12.70;11.70;;;3.30;99.90;;;;;;4219258;28;20043;-85
2022/11/25 07:42:21;;;;;;;13.05;12.10;;;3.30;99.90;;;;;;4217612;28;20071;-85
2022/11/25 07:44:41;;;;;;;12.75;11.73;;;3.40;99.90;;;;;;4230190;28;20055;-85
2022/11/25 07:47:00;;;;;;;11.90;11.15;;;3.50;99.90;;;;;;4231430;28;20047;-85
2022/11/25 07:49:24;;;;;;;13.68;12.68;;;3.60;99.90;;;;;;4225189;28;20112;-85
2022/11/25 07:51:48;;;;;;;17.70;16.05;;;3.70;99.90;;;;;;4217628;28;20059;-85
2022/11/25 07:54:11;;;;;;;19.98;17.95;;;3.70;99.90;;;;;;4230617;28;20376;-85
2022/11/25 07:56:33;;;;;;;20.10;18.48;;;3.80;99.90;;;;;;4224199;28;20111;-85
2022/11/25 07:58:54;;;;;;;19.80;17.80;;;3.80;99.90;;;;;;4232807;28;20097;-85
2022/11/25 08:01:15;;;;;;;24.48;17.38;;;3.80;99.90;;;;;;4218057;28;20067;-85
2022/11/25 08:03:37;;;;;;;18.65;16.70;;;3.70;99.90;;;;;;4215241;28;20086;-85
2022/11/25 08:06:00;;;;;;;13.98;13.07;;;3.70;99.90;;;;;;4218068;28;20055;-84
2022/11/25 08:08:19;;;;;;;16.00;14.50;;;3.70;99.90;;;;;;4216728;28;20050;-85
2022/11/25 08:10:39;;;;;;;11.95;11.18;;;3.70;99.90;;;;;;4231676;28;20246;-85
2022/11/25 08:12:59;;;;;;;11.75;10.30;;;3.80;99.90;;;;;;4219238;28;20039;-85
2022/11/25 08:15:19;;;;;;;14.77;12.40;;;3.90;99.90;;;;;;4229606;28;20102;-85
2022/11/25 08:17:38;;;;;;;11.35;10.68;;;4.00;99.90;;;;;;4220126;28;20089;-85
2022/11/25 08:19:58;;;;;;;10.82;10.23;;;4.20;99.90;;;;;;4230534;28;20062;-85
2022/11/25 08:22:18;;;;;;;9.95;9.20;;;4.30;99.90;;;;;;4226835;28;20054;-85
2022/11/25 08:24:38;;;;;;;13.05;11.98;;;4.30;99.90;;;;;;4230470;28;20066;-85
2022/11/25 08:27:00;;;;;;;15.57;12.98;;;4.50;99.90;;;;;;4220735;28;20047;-85
2022/11/25 08:29:20;;;;;;;12.93;12.05;;;4.60;99.90;;;;;;4218190;28;20042;-85
2022/11/25 08:31:41;;;;;;;11.13;10.52;;;4.70;99.90;;;;;;4217498;28;20051;-85
2022/11/25 08:34:02;;;;;;;11.05;10.52;;;4.80;99.90;;;;;;4214684;28;20078;-85
2022/11/25 08:36:23;;;;;;;19.08;13.20;;;4.90;99.90;;;;;;4215822;28;20308;-85
2022/11/25 08:38:46;;;;;;;12.18;11.27;;;4.90;99.90;;;;;;4223771;28;20047;-84
2022/11/25 08:41:14;;;;;;;21.23;15.27;;;4.90;99.90;;;;;;4216201;28;20341;-84
2022/11/25 08:43:34;;;;;;;18.65;15.38;;;4.90;99.90;;;;;;4216152;28;20073;-84
2022/11/25 08:45:54;;;;;;;18.23;15.88;;;5.00;99.90;;;;;;4218170;28;20139;-84
2022/11/25 08:48:15;;;;;;;16.48;13.98;;;5.00;99.90;;;;;;4232139;28;20387;-84
2022/11/25 08:50:37;;;;;;;14.52;13.15;;;5.00;99.90;;;;;;4217352;28;20373;-84
2022/11/25 08:52:58;;;;;;;13.07;12.02;;;5.10;99.90;;;;;;4215140;28;20108;-83
2022/11/25 08:55:18;;;;;;;14.32;13.02;;;5.10;99.90;;;;;;4219147;28;20059;-82
2022/11/25 08:57:38;;;;;;;12.52;11.48;;;5.20;99.90;;;;;;4217856;28;20047;-83
2022/11/25 08:59:58;;;;;;;12.68;11.43;;;5.40;99.90;;;;;;4230075;28;20397;-81
2022/11/25 09:02:18;;;;;;;28.85;21.27;;;5.50;99.90;;;;;;4218192;28;20393;-82
2022/11/25 09:04:38;;;;;;;16.83;15.35;;;5.70;99.90;;;;;;4223528;28;20089;-82
2022/11/25 09:06:59;;;;;;;26.92;22.27;;;5.80;99.90;;;;;;4221599;28;20070;-82
2022/11/25 09:09:19;;;;;;;16.10;14.48;;;5.70;99.90;;;;;;4221372;28;20074;-82
2022/11/25 09:11:41;;;;;;;14.30;13.02;;;5.70;99.90;;;;;;4231536;28;20120;-82
2022/11/25 09:14:00;;;;;;;14.02;12.70;;;5.70;99.90;;;;;;4229453;28;20055;-82
2022/11/25 09:16:21;;;;;;;10.02;9.38;;;5.80;99.90;;;;;;4215083;28;20062;-82
2022/11/25 09:18:41;;;;;;;9.35;8.85;;;5.90;99.90;;;;;;4231797;28;20111;-82
2022/11/25 09:21:07;;;;;;;7.38;6.78;;;5.90;99.90;;;;;;4217767;28;20085;-82
2022/11/25 09:23:27;;;;;;;5.95;5.78;;;6.10;99.90;;;;;;4232157;28;20041;-82
2022/11/25 09:26:06;;;;;;;7.30;7.07;;;6.10;99.90;;;;;;4230706;28;20391;-82
2022/11/25 09:28:26;;;;;;;4.68;4.45;;;6.20;99.90;;;;;;4212804;28;20247;-82
2022/11/25 09:30:47;;;;;;;5.30;5.10;;;6.30;99.90;;;;;;4215860;28;20235;-82
2022/11/25 09:33:08;;;;;;;5.10;5.00;;;6.30;99.90;;;;;;4216677;28;20043;-82
2022/11/25 09:35:28;;;;;;;5.78;5.57;;;6.40;99.90;;;;;;4215016;28;20099;-81
2022/11/25 09:37:48;;;;;;;5.15;5.05;;;6.50;99.90;;;;;;4216571;28;20035;-81
2022/11/25 09:40:18;;;;;;;4.13;3.92;;;6.60;99.90;;;;;;4229392;28;20104;-81
2022/11/25 09:48:56;;;;;;;2.75;2.75;;;6.70;99.90;;;;;;4228605;28;20114;-82
2022/11/25 09:51:16;;;;;;;4.05;3.95;;;6.90;99.90;;;;;;4197017;28;20054;-81
2022/11/25 09:53:49;;;;;;;3.63;3.53;;;7.00;99.90;;;;;;4233260;28;20051;-82
2022/11/25 09:56:27;;;;;;;4.70;4.47;;;7.10;99.90;;;;;;4231114;28;20042;-81
2022/11/25 09:58:55;;;;;;;2.65;2.58;;;7.20;99.90;;;;;;4212412;28;20067;-82
2022/11/25 10:01:23;;;;;;;4.00;3.70;;;7.20;99.90;;;;;;4228554;28;20094;-82
2022/11/25 10:03:51;;;;;;;2.88;2.67;;;7.30;99.90;;;;;;4229440;28;20078;-82
2022/11/25 10:06:30;;;;;;;3.70;3.60;;;7.50;99.90;;;;;;4226739;28;20059;-82
2022/11/25 10:08:54;;;;;;;3.72;3.53;;;7.60;99.90;;;;;;4228238;28;20127;-82
2022/11/25 10:11:23;;;;;;;2.95;2.85;;;7.80;99.90;;;;;;4227778;28;20119;-82
2022/11/25 10:14:06;;;;;;;2.95;2.85;;;8.00;99.90;;;;;;4226953;28;20038;-81
2022/11/25 10:16:34;;;;;;;2.45;2.20;;;8.10;99.90;;;;;;4214662;28;20059;-82
2022/11/25 10:19:39;;;;;;;4.22;3.50;;;8.50;99.90;;;;;;4226330;28;20039;-82
2022/11/25 10:22:13;;;;;;;7.97;7.47;;;8.80;99.90;;;;;;4229808;28;20085;-82
2022/11/25 10:24:33;;;;;;;;;;;8.90;99.90;;;;;;4228748;28;20120;-82
2022/11/25 10:27:04;;;;;;;4.07;3.97;;;8.90;99.90;;;;;;4231492;28;20021;-82
2022/11/25 10:29:31;;;;;;;4.70;4.30;;;8.90;99.90;;;;;;4229692;28;20108;-81
2022/11/25 10:32:08;;;;;;;7.65;7.15;;;9.10;99.90;;;;;;4216435;28;20052;-81
2022/11/25 10:34:35;;;;;;;7.40;7.07;;;9.10;99.90;;;;;;4232380;28;20039;-80
2022/11/25 10:36:59;;;;;;;4.65;4.55;;;9.20;99.90;;;;;;4230793;28;20084;-81
2022/11/25 10:39:25;;;;;;;;;;;9.10;99.90;;;;;;4231269;28;20074;-81
2022/11/25 10:42:11;;;;;;;8.20;7.80;;;9.30;99.90;;;;;;4228193;28;19982;-81
2022/11/25 10:44:34;;;;;;;8.45;7.53;;;9.40;99.90;;;;;;4227423;28;20050;-82
2022/11/25 10:47:07;;;;;;;10.77;9.88;;;9.50;99.90;;;;;;4231068;28;20365;-81
2022/11/25 10:50:04;;;;;;;9.27;8.48;;;9.60;99.90;;;;;;4236153;28;20093;-81
2022/11/25 10:52:28;;;;;;;6.28;5.88;;;10.00;99.90;;;;;;4230851;28;20054;-81
2022/11/25 10:55:16;;;;;;;8.43;7.68;;;10.10;99.90;;;;;;4234287;28;20243;-81
2022/11/25 10:57:36;;;;;;;8.38;7.80;;;10.20;99.90;;;;;;4232203;28;20373;-81
2022/11/25 10:59:59;;;;;;;6.35;6.15;;;10.30;99.90;;;;;;4216196;28;20120;-81
2022/11/25 11:02:22;;;;;;;8.70;8.17;;;10.50;99.90;;;;;;4236384;28;20112;-81
2022/11/25 11:05:02;;;;;;;10.30;9.70;;;10.50;99.90;;;;;;4233076;28;20454;-81
2022/11/25 11:07:24;;;;;;;8.45;7.90;;;10.40;99.90;;;;;;4232317;28;20050;-82
2022/11/25 11:09:47;;;;;;;30.30;20.02;;;10.40;99.90;;;;;;4233092;28;20042;-81
2022/11/25 11:12:26;;;;;;;16.45;12.95;;;10.40;99.90;;;;;;4233058;28;20039;-81
2022/11/25 11:14:47;;;;;;;3.95;3.80;;;10.50;99.90;;;;;;4233300;28;20043;-81
2022/11/25 11:17:28;;;;;;;5.13;4.78;;;10.60;99.90;;;;;;4230931;28;20074;-81
2022/11/25 11:20:01;;;;;;;6.13;5.95;;;10.60;99.90;;;;;;4231991;28;20063;-81
2022/11/25 11:22:24;;;;;;;6.40;6.10;;;10.60;99.90;;;;;;4231248;28;20385;-81
2022/11/25 11:24:44;;;;;;;7.28;6.75;;;10.60;99.90;;;;;;4233185;28;20059;-81
2022/11/25 11:27:21;;;;;;;6.25;6.00;;;10.70;99.90;;;;;;4231081;28;20051;-81
2022/11/25 11:29:41;;;;;;;4.97;4.88;;;10.70;99.90;;;;;;4231603;28;20253;-81
2022/11/25 11:32:04;;;;;;;3.88;3.67;;;10.90;99.90;;;;;;4230993;28;20138;-81
2022/11/25 11:34:42;;;;;;;2.90;2.80;;;11.00;99.90;;;;;;4233336;28;20077;-81
2022/11/25 11:37:30;;;;;;;3.55;3.45;;;11.10;99.90;;;;;;4232698;28;20136;-81
2022/11/25 11:40:27;;;;;;;3.67;3.58;;;11.20;99.90;;;;;;4215243;28;20385;-81
2022/11/25 11:43:11;;;;;;;2.92;2.72;;;11.30;99.90;;;;;;4232498;28;20046;-81
2022/11/25 11:45:56;;;;;;;3.15;3.05;;;11.10;99.90;;;;;;4231770;28;20054;-81
2022/11/25 11:48:23;;;;;;;3.17;2.83;;;10.90;99.90;;;;;;4228817;28;20043;-81
2022/11/25 11:51:41;;;;;;;3.85;3.75;;;10.90;99.90;;;;;;4229308;28;20392;-81
2022/11/25 11:54:38;;;;;;;3.40;3.10;;;11.10;99.90;;;;;;4194229;28;20055;-81
2022/11/25 11:57:10;;;;;;;2.90;2.70;;;11.20;99.90;;;;;;4218020;28;20059;-81
2022/11/25 11:59:51;;;;;;;3.65;3.28;;;11.20;99.90;;;;;;4226426;28;20042;-81
2022/11/25 12:02:20;;;;;;;2.05;2.00;;;11.20;99.90;;;;;;4229063;28;20273;-81
2022/11/25 12:05:07;;;;;;;2.33;2.13;;;11.40;99.90;;;;;;4230815;28;20054;-81
2022/11/25 12:07:45;;;;;;;4.43;2.53;;;11.40;99.90;;;;;;4224873;28;20150;-81
2022/11/25 12:10:14;;;;;;;2.40;2.30;;;11.40;99.90;;;;;;4238152;28;20046;-81
2022/11/25 12:12:39;;;;;;;3.75;3.50;;;11.50;99.90;;;;;;4219473;28;20155;-81
2022/11/25 12:15:18;;;;;;;2.17;2.03;;;11.60;99.90;;;;;;4232829;28;20086;-81
2022/11/25 12:17:52;;;;;;;2.03;1.92;;;11.60;99.90;;;;;;4216246;28;20139;-81
2022/11/25 12:20:17;;;;;;;2.53;2.42;;;11.80;99.90;;;;;;4231518;28;20380;-81
2022/11/25 12:22:58;;;;;;;2.45;2.33;;;11.80;99.90;;;;;;4215572;28;20079;-81
2022/11/25 12:25:36;;;;;;;2.95;1.80;;;11.80;99.90;;;;;;4232247;28;20218;-81
2022/11/25 12:28:17;;;;;;;5.18;2.50;;;11.80;99.90;;;;;;4232247;28;20077;-81
2022/11/25 12:31:12;;;;;;;2.13;2.13;;;11.80;99.90;;;;;;4226340;28;20046;-81
2022/11/25 12:33:54;;;;;;;2.78;2.40;;;11.80;99.90;;;;;;4221540;28;20053;-81